Impacts METAR Board
IDs:

KLAS - Las Vegas/McCarran I, NV, US

Updated at: 0700 UTC 24 Sep 2018
Potential Impact None Slight Moderate High
Time 23/19Z 23/20Z 23/21Z 23/22Z 23/23Z 24/00Z 24/01Z 24/02Z 24/03Z 24/04Z 24/05Z 24/06Z 24/07Z
Temp95 96 97 96 98 97 95 93 91 90 88 85 85
Dewpt42 41 41 41 41 39 39 38 40 40 40 41 40
Altim29.86 29.84 29.80 29.78 29.75 29.74 29.73 29.74 29.74 29.76 29.76 29.77 29.78
VIS10 10 10 10 10 10 10 10 10 10 10 10 10
CIG-- -- -- -- -- -- -- -- -- -- -- -- --
CoverFEWSCTSCTSCTSCTSCTFEWFEWFEWFEWFEWFEWCLR
FltCatVFRVFRVFRVFRVFRVFRVFRVFRVFRVFRVFRVFRVFR
WX--------------------------
WDir180190240240240220240230240230190180210
WSpd7 8 10 10 13 14 11 8 9 9 5 5 6
WGst17 15 -- 19 19 -- 18 -- -- -- -- -- --
Raw hourly METARs
KLAS 231856Z 18007G17KT 140V200 10SM FEW110 35/06 A2986 RMK AO2 SLP081 T03500056
KLAS 231956Z 19008G15KT 160V220 10SM SCT110 36/05 A2984 RMK AO2 SLP074 T03560050
KLAS 232056Z 24010KT 10SM SCT110 36/05 A2980 RMK AO2 WSHFT 2007 SLP063 T03610050 58026
KLAS 232156Z 24010G19KT 10SM SCT110 36/05 A2978 RMK AO2 SLP052 T03560050
KLAS 232256Z 24013G19KT 10SM SCT110 37/05 A2975 RMK AO2 SLP043 T03670050
KLAS 232356Z 22014KT 10SM SCT110 36/04 A2974 RMK AO2 SLP040 T03610039 10372 20333 56021
KLAS 240056Z 24011G18KT 10SM FEW110 35/04 A2973 RMK AO2 SLP039 T03500039
KLAS 240156Z 23008KT 10SM FEW110 FEW250 34/03 A2974 RMK AO2 SLP041 T03390033
KLAS 240256Z 24009KT 10SM FEW110 FEW250 33/04 A2974 RMK AO2 SLP043 T03280044 53001
KLAS 240356Z 23009KT 10SM FEW110 32/04 A2976 RMK AO2 SLP049 T03220044
KLAS 240456Z 19005KT 10SM FEW110 31/04 A2976 RMK AO2 SLP049 T03110044
KLAS 240556Z 18005KT 10SM FEW110 29/05 A2977 RMK AO2 SLP051 T02940050 10361 20294 51009
KLAS 240656Z 21006KT 10SM CLR 29/04 A2978 RMK AO2 SLP053 T02940044



Page loaded:  07:30 UTC  |   12:30 AM Pacific  |   01:30 AM Mountain  |   02:30 AM Central  |   03:30 AM Eastern

 

ADVISORIES

FORECASTS

FORECASTS

OBSERVATIONS

USER TOOLS

ABOUT US